sensor_id;sensor_type;location;lat;lon;timestamp;P1;durP1;ratioP1;P2;durP2;ratioP2
12780;SDS011;6454;43.304;24.344;2023-05-08T00:01:37;5.22;;;2.40;;
12780;SDS011;6454;43.304;24.344;2023-05-08T00:04:04;3.35;;;2.47;;
12780;SDS011;6454;43.304;24.344;2023-05-08T00:06:32;3.33;;;2.80;;
12780;SDS011;6454;43.304;24.344;2023-05-08T00:08:59;2.75;;;2.55;;
12780;SDS011;6454;43.304;24.344;2023-05-08T00:11:25;3.13;;;2.70;;
12780;SDS011;6454;43.304;24.344;2023-05-08T00:13:52;2.80;;;2.50;;
12780;SDS011;6454;43.304;24.344;2023-05-08T00:16:19;3.95;;;2.75;;
12780;SDS011;6454;43.304;24.344;2023-05-08T00:18:46;5.10;;;2.88;;
12780;SDS011;6454;43.304;24.344;2023-05-08T00:21:13;2.92;;;2.63;;
12780;SDS011;6454;43.304;24.344;2023-05-08T00:23:41;3.22;;;2.90;;
12780;SDS011;6454;43.304;24.344;2023-05-08T00:26:08;3.13;;;2.65;;
12780;SDS011;6454;43.304;24.344;2023-05-08T00:28:34;3.17;;;2.88;;
12780;SDS011;6454;43.304;24.344;2023-05-08T00:31:01;4.60;;;2.50;;
12780;SDS011;6454;43.304;24.344;2023-05-08T00:33:28;3.65;;;2.40;;
12780;SDS011;6454;43.304;24.344;2023-05-08T00:35:58;2.67;;;2.47;;
12780;SDS011;6454;43.304;24.344;2023-05-08T00:38:25;3.03;;;2.70;;
12780;SDS011;6454;43.304;24.344;2023-05-08T00:40:53;3.55;;;2.65;;
12780;SDS011;6454;43.304;24.344;2023-05-08T00:43:20;3.42;;;2.75;;
12780;SDS011;6454;43.304;24.344;2023-05-08T00:45:49;2.80;;;2.50;;
12780;SDS011;6454;43.304;24.344;2023-05-08T00:48:18;3.30;;;2.67;;
12780;SDS011;6454;43.304;24.344;2023-05-08T00:50:47;2.53;;;2.28;;
12780;SDS011;6454;43.304;24.344;2023-05-08T00:53:15;3.78;;;2.58;;
12780;SDS011;6454;43.304;24.344;2023-05-08T00:55:42;3.90;;;2.60;;
12780;SDS011;6454;43.304;24.344;2023-05-08T00:58:11;3.40;;;2.70;;
12780;SDS011;6454;43.304;24.344;2023-05-08T01:00:40;5.72;;;2.75;;
12780;SDS011;6454;43.304;24.344;2023-05-08T01:03:08;3.72;;;2.75;;
12780;SDS011;6454;43.304;24.344;2023-05-08T01:05:35;3.17;;;2.70;;
12780;SDS011;6454;43.304;24.344;2023-05-08T01:08:01;3.03;;;2.40;;
12780;SDS011;6454;43.304;24.344;2023-05-08T01:10:31;2.75;;;2.55;;
12780;SDS011;6454;43.304;24.344;2023-05-08T01:13:17;3.55;;;2.70;;
12780;SDS011;6454;43.304;24.344;2023-05-08T01:15:56;2.83;;;2.53;;
12780;SDS011;6454;43.304;24.344;2023-05-08T01:18:32;4.53;;;2.63;;
12780;SDS011;6454;43.304;24.344;2023-05-08T01:21:06;4.35;;;3.10;;
12780;SDS011;6454;43.304;24.344;2023-05-08T01:27:06;3.40;;;3.10;;
12780;SDS011;6454;43.304;24.344;2023-05-08T01:33:08;4.20;;;2.72;;
12780;SDS011;6454;43.304;24.344;2023-05-08T01:35:44;6.18;;;2.80;;
12780;SDS011;6454;43.304;24.344;2023-05-08T01:38:18;2.70;;;2.38;;
12780;SDS011;6454;43.304;24.344;2023-05-08T01:40:51;3.08;;;2.50;;
12780;SDS011;6454;43.304;24.344;2023-05-08T01:43:24;2.90;;;2.60;;
12780;SDS011;6454;43.304;24.344;2023-05-08T01:46:05;3.17;;;2.70;;
12780;SDS011;6454;43.304;24.344;2023-05-08T01:48:41;3.15;;;2.60;;
12780;SDS011;6454;43.304;24.344;2023-05-08T01:51:14;3.20;;;2.85;;
12780;SDS011;6454;43.304;24.344;2023-05-08T01:53:46;4.15;;;2.80;;
12780;SDS011;6454;43.304;24.344;2023-05-08T01:56:18;3.88;;;2.67;;
12780;SDS011;6454;43.304;24.344;2023-05-08T01:58:48;3.38;;;2.80;;
12780;SDS011;6454;43.304;24.344;2023-05-08T02:01:17;3.00;;;2.70;;
12780;SDS011;6454;43.304;24.344;2023-05-08T02:03:47;3.47;;;3.17;;
12780;SDS011;6454;43.304;24.344;2023-05-08T02:06:16;3.40;;;3.10;;
12780;SDS011;6454;43.304;24.344;2023-05-08T02:08:45;2.83;;;2.63;;
12780;SDS011;6454;43.304;24.344;2023-05-08T02:11:13;3.67;;;3.35;;
12780;SDS011;6454;43.304;24.344;2023-05-08T02:13:41;3.22;;;2.70;;
12780;SDS011;6454;43.304;24.344;2023-05-08T02:16:12;4.22;;;3.38;;
12780;SDS011;6454;43.304;24.344;2023-05-08T02:18:50;4.47;;;3.25;;
12780;SDS011;6454;43.304;24.344;2023-05-08T02:21:19;6.40;;;3.80;;
12780;SDS011;6454;43.304;24.344;2023-05-08T02:23:48;4.70;;;3.53;;
12780;SDS011;6454;43.304;24.344;2023-05-08T02:26:17;3.20;;;2.90;;
12780;SDS011;6454;43.304;24.344;2023-05-08T02:28:45;4.60;;;3.30;;
12780;SDS011;6454;43.304;24.344;2023-05-08T02:31:13;3.35;;;3.05;;
12780;SDS011;6454;43.304;24.344;2023-05-08T02:33:42;7.55;;;3.72;;
12780;SDS011;6454;43.304;24.344;2023-05-08T02:36:14;3.83;;;3.53;;
12780;SDS011;6454;43.304;24.344;2023-05-08T02:38:43;4.30;;;3.90;;
12780;SDS011;6454;43.304;24.344;2023-05-08T02:41:12;4.97;;;3.72;;
12780;SDS011;6454;43.304;24.344;2023-05-08T02:43:40;5.63;;;4.05;;
12780;SDS011;6454;43.304;24.344;2023-05-08T02:46:09;4.40;;;4.00;;
12780;SDS011;6454;43.304;24.344;2023-05-08T02:48:43;5.25;;;4.32;;
12780;SDS011;6454;43.304;24.344;2023-05-08T02:51:20;4.43;;;4.03;;
12780;SDS011;6454;43.304;24.344;2023-05-08T02:53:53;5.18;;;4.10;;
12780;SDS011;6454;43.304;24.344;2023-05-08T02:56:27;6.10;;;3.80;;
12780;SDS011;6454;43.304;24.344;2023-05-08T02:59:00;4.38;;;3.75;;
12780;SDS011;6454;43.304;24.344;2023-05-08T03:01:41;4.40;;;3.75;;
12780;SDS011;6454;43.304;24.344;2023-05-08T03:04:13;4.47;;;4.07;;
12780;SDS011;6454;43.304;24.344;2023-05-08T03:06:49;5.45;;;3.88;;
12780;SDS011;6454;43.304;24.344;2023-05-08T03:09:18;4.75;;;4.25;;
12780;SDS011;6454;43.304;24.344;2023-05-08T03:11:47;4.85;;;4.15;;
12780;SDS011;6454;43.304;24.344;2023-05-08T03:14:17;4.45;;;3.67;;
12780;SDS011;6454;43.304;24.344;2023-05-08T03:16:46;3.63;;;3.33;;
12780;SDS011;6454;43.304;24.344;2023-05-08T03:19:18;4.20;;;3.80;;
12780;SDS011;6454;43.304;24.344;2023-05-08T03:21:53;4.50;;;4.10;;
12780;SDS011;6454;43.304;24.344;2023-05-08T03:24:23;4.15;;;3.75;;
12780;SDS011;6454;43.304;24.344;2023-05-08T03:26:53;5.63;;;3.75;;
12780;SDS011;6454;43.304;24.344;2023-05-08T03:29:22;4.25;;;3.85;;
12780;SDS011;6454;43.304;24.344;2023-05-08T03:31:50;5.13;;;4.18;;
12780;SDS011;6454;43.304;24.344;2023-05-08T03:34:18;5.40;;;4.20;;
12780;SDS011;6454;43.304;24.344;2023-05-08T03:36:47;4.20;;;3.80;;
12780;SDS011;6454;43.304;24.344;2023-05-08T03:39:15;6.25;;;3.63;;
12780;SDS011;6454;43.304;24.344;2023-05-08T03:41:42;8.02;;;4.20;;
12780;SDS011;6454;43.304;24.344;2023-05-08T03:44:09;5.15;;;3.75;;
12780;SDS011;6454;43.304;24.344;2023-05-08T03:46:38;6.13;;;3.92;;
12780;SDS011;6454;43.304;24.344;2023-05-08T03:49:07;5.15;;;4.13;;
12780;SDS011;6454;43.304;24.344;2023-05-08T03:51:35;5.68;;;4.47;;
12780;SDS011;6454;43.304;24.344;2023-05-08T03:54:03;6.65;;;4.15;;
12780;SDS011;6454;43.304;24.344;2023-05-08T03:56:32;4.75;;;3.90;;
12780;SDS011;6454;43.304;24.344;2023-05-08T03:58:59;6.47;;;3.95;;
12780;SDS011;6454;43.304;24.344;2023-05-08T04:01:36;6.20;;;4.07;;
12780;SDS011;6454;43.304;24.344;2023-05-08T04:04:05;5.70;;;4.22;;
12780;SDS011;6454;43.304;24.344;2023-05-08T04:06:36;6.35;;;3.97;;
12780;SDS011;6454;43.304;24.344;2023-05-08T04:09:07;4.15;;;3.58;;
12780;SDS011;6454;43.304;24.344;2023-05-08T04:11:41;5.32;;;4.28;;
12780;SDS011;6454;43.304;24.344;2023-05-08T04:14:18;5.93;;;4.20;;
12780;SDS011;6454;43.304;24.344;2023-05-08T04:16:47;4.43;;;4.03;;
12780;SDS011;6454;43.304;24.344;2023-05-08T04:19:18;4.50;;;4.00;;
12780;SDS011;6454;43.304;24.344;2023-05-08T04:21:49;8.20;;;4.20;;
12780;SDS011;6454;43.304;24.344;2023-05-08T04:24:19;6.47;;;3.80;;
12780;SDS011;6454;43.304;24.344;2023-05-08T04:26:50;4.70;;;4.20;;
12780;SDS011;6454;43.304;24.344;2023-05-08T04:29:18;5.63;;;4.25;;
12780;SDS011;6454;43.304;24.344;2023-05-08T04:31:45;4.60;;;4.20;;
12780;SDS011;6454;43.304;24.344;2023-05-08T04:34:14;4.57;;;4.18;;
12780;SDS011;6454;43.304;24.344;2023-05-08T04:36:43;5.20;;;4.05;;
12780;SDS011;6454;43.304;24.344;2023-05-08T04:39:12;5.20;;;4.22;;
12780;SDS011;6454;43.304;24.344;2023-05-08T04:41:39;4.80;;;4.30;;
12780;SDS011;6454;43.304;24.344;2023-05-08T04:44:07;8.93;;;4.78;;
12780;SDS011;6454;43.304;24.344;2023-05-08T04:46:35;13.18;;;4.25;;
12780;SDS011;6454;43.304;24.344;2023-05-08T04:49:02;6.95;;;4.55;;
12780;SDS011;6454;43.304;24.344;2023-05-08T04:51:29;7.07;;;4.63;;
12780;SDS011;6454;43.304;24.344;2023-05-08T04:53:56;4.57;;;4.10;;
12780;SDS011;6454;43.304;24.344;2023-05-08T04:56:23;7.32;;;4.32;;
12780;SDS011;6454;43.304;24.344;2023-05-08T04:58:50;7.32;;;4.15;;
12780;SDS011;6454;43.304;24.344;2023-05-08T05:01:19;13.38;;;9.85;;
12780;SDS011;6454;43.304;24.344;2023-05-08T05:03:45;68.07;;;32.67;;
12780;SDS011;6454;43.304;24.344;2023-05-08T05:06:12;47.72;;;21.63;;
12780;SDS011;6454;43.304;24.344;2023-05-08T05:08:39;50.20;;;24.67;;
12780;SDS011;6454;43.304;24.344;2023-05-08T05:11:06;52.55;;;26.92;;
12780;SDS011;6454;43.304;24.344;2023-05-08T05:13:33;65.60;;;29.02;;
12780;SDS011;6454;43.304;24.344;2023-05-08T05:15:59;49.25;;;23.20;;
12780;SDS011;6454;43.304;24.344;2023-05-08T05:18:28;58.58;;;27.02;;
12780;SDS011;6454;43.304;24.344;2023-05-08T05:20:56;42.00;;;17.90;;
12780;SDS011;6454;43.304;24.344;2023-05-08T05:23:23;19.58;;;10.90;;
12780;SDS011;6454;43.304;24.344;2023-05-08T05:25:50;15.25;;;8.32;;
12780;SDS011;6454;43.304;24.344;2023-05-08T05:28:17;10.82;;;5.55;;
12780;SDS011;6454;43.304;24.344;2023-05-08T05:30:45;9.45;;;5.28;;
12780;SDS011;6454;43.304;24.344;2023-05-08T05:33:12;9.73;;;4.53;;
12780;SDS011;6454;43.304;24.344;2023-05-08T05:35:40;9.52;;;4.63;;
12780;SDS011;6454;43.304;24.344;2023-05-08T05:38:07;9.52;;;5.13;;
12780;SDS011;6454;43.304;24.344;2023-05-08T05:40:34;7.18;;;4.72;;
12780;SDS011;6454;43.304;24.344;2023-05-08T05:43:01;7.68;;;4.68;;
12780;SDS011;6454;43.304;24.344;2023-05-08T05:45:28;18.17;;;8.35;;
12780;SDS011;6454;43.304;24.344;2023-05-08T05:47:55;10.95;;;7.28;;
12780;SDS011;6454;43.304;24.344;2023-05-08T05:50:22;10.05;;;4.82;;
12780;SDS011;6454;43.304;24.344;2023-05-08T05:52:50;9.80;;;4.65;;
12780;SDS011;6454;43.304;24.344;2023-05-08T05:55:17;7.53;;;4.72;;
12780;SDS011;6454;43.304;24.344;2023-05-08T05:57:44;7.45;;;4.28;;
12780;SDS011;6454;43.304;24.344;2023-05-08T06:00:11;5.68;;;4.47;;
12780;SDS011;6454;43.304;24.344;2023-05-08T06:02:38;8.20;;;4.90;;
12780;SDS011;6454;43.304;24.344;2023-05-08T06:05:06;7.20;;;4.50;;
12780;SDS011;6454;43.304;24.344;2023-05-08T06:07:33;12.00;;;4.47;;
12780;SDS011;6454;43.304;24.344;2023-05-08T06:10:01;8.10;;;4.90;;
12780;SDS011;6454;43.304;24.344;2023-05-08T06:12:29;10.20;;;4.25;;
12780;SDS011;6454;43.304;24.344;2023-05-08T06:14:55;6.22;;;4.45;;
12780;SDS011;6454;43.304;24.344;2023-05-08T06:17:22;6.93;;;4.50;;
12780;SDS011;6454;43.304;24.344;2023-05-08T06:19:49;7.97;;;4.80;;
12780;SDS011;6454;43.304;24.344;2023-05-08T06:22:20;6.95;;;4.43;;
12780;SDS011;6454;43.304;24.344;2023-05-08T06:24:47;5.63;;;4.00;;
12780;SDS011;6454;43.304;24.344;2023-05-08T06:27:18;8.20;;;4.80;;
12780;SDS011;6454;43.304;24.344;2023-05-08T06:29:46;6.93;;;4.70;;
12780;SDS011;6454;43.304;24.344;2023-05-08T06:32:15;7.65;;;4.50;;
12780;SDS011;6454;43.304;24.344;2023-05-08T06:34:42;6.10;;;3.50;;
12780;SDS011;6454;43.304;24.344;2023-05-08T06:37:09;3.85;;;3.30;;
12780;SDS011;6454;43.304;24.344;2023-05-08T06:39:36;3.00;;;2.80;;
12780;SDS011;6454;43.304;24.344;2023-05-08T06:42:03;4.95;;;3.15;;
12780;SDS011;6454;43.304;24.344;2023-05-08T06:44:32;4.28;;;3.10;;
12780;SDS011;6454;43.304;24.344;2023-05-08T06:46:58;5.13;;;2.85;;
12780;SDS011;6454;43.304;24.344;2023-05-08T06:49:25;4.18;;;2.63;;
12780;SDS011;6454;43.304;24.344;2023-05-08T06:51:52;4.47;;;2.17;;
12780;SDS011;6454;43.304;24.344;2023-05-08T06:54:19;3.83;;;2.60;;
12780;SDS011;6454;43.304;24.344;2023-05-08T06:56:46;3.50;;;2.70;;
12780;SDS011;6454;43.304;24.344;2023-05-08T06:59:13;2.92;;;2.47;;
12780;SDS011;6454;43.304;24.344;2023-05-08T07:01:41;3.55;;;2.78;;
12780;SDS011;6454;43.304;24.344;2023-05-08T07:04:08;2.50;;;2.28;;
12780;SDS011;6454;43.304;24.344;2023-05-08T07:06:35;2.70;;;2.42;;
12780;SDS011;6454;43.304;24.344;2023-05-08T07:09:01;3.70;;;2.47;;
12780;SDS011;6454;43.304;24.344;2023-05-08T07:11:28;2.85;;;2.28;;
12780;SDS011;6454;43.304;24.344;2023-05-08T07:13:55;4.13;;;2.30;;
12780;SDS011;6454;43.304;24.344;2023-05-08T07:16:22;4.00;;;2.55;;
12780;SDS011;6454;43.304;24.344;2023-05-08T07:18:51;5.15;;;2.50;;
12780;SDS011;6454;43.304;24.344;2023-05-08T07:21:18;2.88;;;2.60;;
12780;SDS011;6454;43.304;24.344;2023-05-08T07:23:45;2.53;;;2.33;;
12780;SDS011;6454;43.304;24.344;2023-05-08T07:26:15;2.85;;;2.35;;
12780;SDS011;6454;43.304;24.344;2023-05-08T07:28:42;3.00;;;2.70;;
12780;SDS011;6454;43.304;24.344;2023-05-08T07:31:09;2.72;;;2.47;;
12780;SDS011;6454;43.304;24.344;2023-05-08T07:33:36;3.45;;;2.63;;
12780;SDS011;6454;43.304;24.344;2023-05-08T07:36:04;5.35;;;2.67;;
12780;SDS011;6454;43.304;24.344;2023-05-08T07:38:31;6.95;;;3.00;;
12780;SDS011;6454;43.304;24.344;2023-05-08T07:40:58;3.95;;;2.83;;
12780;SDS011;6454;43.304;24.344;2023-05-08T07:43:26;2.50;;;2.30;;
12780;SDS011;6454;43.304;24.344;2023-05-08T07:45:52;3.33;;;2.80;;
12780;SDS011;6454;43.304;24.344;2023-05-08T07:48:19;4.60;;;2.47;;
12780;SDS011;6454;43.304;24.344;2023-05-08T07:50:47;2.90;;;2.60;;
12780;SDS011;6454;43.304;24.344;2023-05-08T07:53:16;3.53;;;2.67;;
12780;SDS011;6454;43.304;24.344;2023-05-08T07:55:43;5.75;;;2.80;;
12780;SDS011;6454;43.304;24.344;2023-05-08T07:58:10;3.25;;;2.60;;
12780;SDS011;6454;43.304;24.344;2023-05-08T08:00:36;3.47;;;2.75;;
12780;SDS011;6454;43.304;24.344;2023-05-08T08:03:04;4.18;;;2.50;;
12780;SDS011;6454;43.304;24.344;2023-05-08T08:05:31;4.90;;;2.60;;
12780;SDS011;6454;43.304;24.344;2023-05-08T08:07:58;5.03;;;2.78;;
12780;SDS011;6454;43.304;24.344;2023-05-08T08:10:27;3.20;;;2.58;;
12780;SDS011;6454;43.304;24.344;2023-05-08T08:12:53;3.25;;;2.88;;
12780;SDS011;6454;43.304;24.344;2023-05-08T08:15:20;4.55;;;2.90;;
12780;SDS011;6454;43.304;24.344;2023-05-08T08:17:47;4.63;;;3.08;;
12780;SDS011;6454;43.304;24.344;2023-05-08T08:20:14;5.13;;;2.95;;
12780;SDS011;6454;43.304;24.344;2023-05-08T08:22:41;4.45;;;2.65;;
12780;SDS011;6454;43.304;24.344;2023-05-08T08:25:08;3.65;;;2.85;;
12780;SDS011;6454;43.304;24.344;2023-05-08T08:27:36;3.88;;;3.20;;
12780;SDS011;6454;43.304;24.344;2023-05-08T08:30:03;6.95;;;2.88;;
12780;SDS011;6454;43.304;24.344;2023-05-08T08:32:31;3.60;;;3.10;;
12780;SDS011;6454;43.304;24.344;2023-05-08T08:34:58;4.72;;;3.35;;
12780;SDS011;6454;43.304;24.344;2023-05-08T08:37:24;4.15;;;2.83;;
12780;SDS011;6454;43.304;24.344;2023-05-08T08:39:51;3.65;;;3.20;;
12780;SDS011;6454;43.304;24.344;2023-05-08T08:42:19;4.78;;;3.70;;
12780;SDS011;6454;43.304;24.344;2023-05-08T08:44:49;3.90;;;3.08;;
12780;SDS011;6454;43.304;24.344;2023-05-08T08:47:16;3.25;;;2.85;;
12780;SDS011;6454;43.304;24.344;2023-05-08T08:49:46;3.72;;;3.00;;
12780;SDS011;6454;43.304;24.344;2023-05-08T08:52:17;4.53;;;3.03;;
12780;SDS011;6454;43.304;24.344;2023-05-08T08:54:52;5.88;;;2.88;;
12780;SDS011;6454;43.304;24.344;2023-05-08T08:57:22;4.13;;;2.90;;
12780;SDS011;6454;43.304;24.344;2023-05-08T08:59:53;5.53;;;3.40;;
12780;SDS011;6454;43.304;24.344;2023-05-08T09:02:20;3.60;;;3.17;;
12780;SDS011;6454;43.304;24.344;2023-05-08T09:04:48;3.72;;;3.15;;
12780;SDS011;6454;43.304;24.344;2023-05-08T09:07:16;4.47;;;2.85;;
12780;SDS011;6454;43.304;24.344;2023-05-08T09:09:43;4.32;;;3.28;;
12780;SDS011;6454;43.304;24.344;2023-05-08T09:12:13;4.10;;;2.80;;
12780;SDS011;6454;43.304;24.344;2023-05-08T09:14:40;4.22;;;2.85;;
12780;SDS011;6454;43.304;24.344;2023-05-08T09:17:09;5.45;;;3.47;;
12780;SDS011;6454;43.304;24.344;2023-05-08T09:19:35;3.20;;;2.90;;
12780;SDS011;6454;43.304;24.344;2023-05-08T09:22:03;4.07;;;3.00;;
12780;SDS011;6454;43.304;24.344;2023-05-08T09:27:30;4.32;;;3.65;;
12780;SDS011;6454;43.304;24.344;2023-05-08T09:29:58;4.72;;;3.20;;
12780;SDS011;6454;43.304;24.344;2023-05-08T09:32:28;4.18;;;3.25;;
12780;SDS011;6454;43.304;24.344;2023-05-08T09:34:55;3.47;;;3.17;;
12780;SDS011;6454;43.304;24.344;2023-05-08T09:37:22;4.93;;;3.10;;
12780;SDS011;6454;43.304;24.344;2023-05-08T09:39:50;4.93;;;3.10;;
12780;SDS011;6454;43.304;24.344;2023-05-08T09:42:17;3.47;;;3.17;;
12780;SDS011;6454;43.304;24.344;2023-05-08T09:44:45;5.10;;;2.95;;
12780;SDS011;6454;43.304;24.344;2023-05-08T09:47:14;4.15;;;3.05;;
12780;SDS011;6454;43.304;24.344;2023-05-08T09:49:56;4.50;;;3.45;;
12780;SDS011;6454;43.304;24.344;2023-05-08T09:52:23;4.03;;;3.00;;
12780;SDS011;6454;43.304;24.344;2023-05-08T09:54:55;4.07;;;3.03;;
12780;SDS011;6454;43.304;24.344;2023-05-08T09:57:24;9.98;;;3.85;;
12780;SDS011;6454;43.304;24.344;2023-05-08T09:59:50;8.25;;;3.30;;
12780;SDS011;6454;43.304;24.344;2023-05-08T10:02:25;6.18;;;3.40;;
12780;SDS011;6454;43.304;24.344;2023-05-08T10:04:52;5.82;;;3.83;;
12780;SDS011;6454;43.304;24.344;2023-05-08T10:07:27;5.45;;;3.22;;
12780;SDS011;6454;43.304;24.344;2023-05-08T10:09:58;7.05;;;3.80;;
12780;SDS011;6454;43.304;24.344;2023-05-08T10:12:28;6.25;;;3.22;;
12780;SDS011;6454;43.304;24.344;2023-05-08T10:14:56;5.13;;;3.67;;
12780;SDS011;6454;43.304;24.344;2023-05-08T10:17:26;5.25;;;3.05;;
12780;SDS011;6454;43.304;24.344;2023-05-08T10:20:05;6.28;;;3.95;;
12780;SDS011;6454;43.304;24.344;2023-05-08T10:22:36;5.05;;;3.17;;
12780;SDS011;6454;43.304;24.344;2023-05-08T10:25:06;6.28;;;3.05;;
12780;SDS011;6454;43.304;24.344;2023-05-08T10:27:38;3.55;;;2.60;;
12780;SDS011;6454;43.304;24.344;2023-05-08T10:30:14;5.28;;;2.80;;
12780;SDS011;6454;43.304;24.344;2023-05-08T10:32:43;4.13;;;3.10;;
12780;SDS011;6454;43.304;24.344;2023-05-08T10:35:15;7.20;;;3.15;;
12780;SDS011;6454;43.304;24.344;2023-05-08T10:37:45;6.25;;;3.20;;
12780;SDS011;6454;43.304;24.344;2023-05-08T10:40:13;6.65;;;3.15;;
12780;SDS011;6454;43.304;24.344;2023-05-08T10:42:40;7.55;;;3.08;;
12780;SDS011;6454;43.304;24.344;2023-05-08T10:45:08;7.97;;;3.75;;
12780;SDS011;6454;43.304;24.344;2023-05-08T10:47:48;9.65;;;3.13;;
12780;SDS011;6454;43.304;24.344;2023-05-08T10:50:27;7.10;;;3.15;;
12780;SDS011;6454;43.304;24.344;2023-05-08T10:53:07;11.02;;;3.33;;
12780;SDS011;6454;43.304;24.344;2023-05-08T10:55:38;5.93;;;3.20;;
12780;SDS011;6454;43.304;24.344;2023-05-08T10:58:11;9.52;;;3.25;;
12780;SDS011;6454;43.304;24.344;2023-05-08T11:03:45;9.00;;;3.67;;
12780;SDS011;6454;43.304;24.344;2023-05-08T11:06:14;3.72;;;3.25;;
12780;SDS011;6454;43.304;24.344;2023-05-08T11:08:45;5.97;;;3.00;;
12780;SDS011;6454;43.304;24.344;2023-05-08T11:11:19;6.47;;;3.30;;
12780;SDS011;6454;43.304;24.344;2023-05-08T11:13:52;5.78;;;3.17;;
12780;SDS011;6454;43.304;24.344;2023-05-08T11:19:34;6.43;;;3.03;;
12780;SDS011;6454;43.304;24.344;2023-05-08T11:22:10;6.78;;;3.22;;
12780;SDS011;6454;43.304;24.344;2023-05-08T11:24:48;13.95;;;3.65;;
12780;SDS011;6454;43.304;24.344;2023-05-08T11:27:29;7.43;;;3.67;;
12780;SDS011;6454;43.304;24.344;2023-05-08T11:35:46;9.02;;;3.53;;
12780;SDS011;6454;43.304;24.344;2023-05-08T11:38:15;4.35;;;3.35;;
12780;SDS011;6454;43.304;24.344;2023-05-08T11:40:45;5.88;;;3.08;;
12780;SDS011;6454;43.304;24.344;2023-05-08T11:43:24;6.55;;;3.53;;
12780;SDS011;6454;43.304;24.344;2023-05-08T11:45:51;7.20;;;3.72;;
12780;SDS011;6454;43.304;24.344;2023-05-08T11:48:19;6.72;;;3.45;;
12780;SDS011;6454;43.304;24.344;2023-05-08T11:50:46;9.35;;;3.70;;
12780;SDS011;6454;43.304;24.344;2023-05-08T11:53:13;5.72;;;3.42;;
12780;SDS011;6454;43.304;24.344;2023-05-08T11:55:40;3.25;;;2.72;;
12780;SDS011;6454;43.304;24.344;2023-05-08T11:58:12;7.53;;;3.22;;
12780;SDS011;6454;43.304;24.344;2023-05-08T12:00:39;10.30;;;3.33;;
12780;SDS011;6454;43.304;24.344;2023-05-08T12:03:10;4.88;;;2.70;;
12780;SDS011;6454;43.304;24.344;2023-05-08T12:05:38;7.38;;;2.70;;
12780;SDS011;6454;43.304;24.344;2023-05-08T12:08:05;3.92;;;2.80;;
12780;SDS011;6454;43.304;24.344;2023-05-08T12:10:37;9.90;;;3.42;;
12780;SDS011;6454;43.304;24.344;2023-05-08T12:13:15;5.55;;;3.42;;
12780;SDS011;6454;43.304;24.344;2023-05-08T12:15:43;4.60;;;3.13;;
12780;SDS011;6454;43.304;24.344;2023-05-08T12:18:11;4.65;;;3.08;;
12780;SDS011;6454;43.304;24.344;2023-05-08T12:20:37;6.35;;;3.55;;
12780;SDS011;6454;43.304;24.344;2023-05-08T12:23:04;4.55;;;3.10;;
12780;SDS011;6454;43.304;24.344;2023-05-08T12:25:32;6.88;;;3.33;;
12780;SDS011;6454;43.304;24.344;2023-05-08T12:27:59;4.78;;;2.88;;
12780;SDS011;6454;43.304;24.344;2023-05-08T12:30:27;4.35;;;2.40;;
12780;SDS011;6454;43.304;24.344;2023-05-08T12:32:55;4.68;;;2.42;;
12780;SDS011;6454;43.304;24.344;2023-05-08T12:35:22;6.72;;;2.75;;
12780;SDS011;6454;43.304;24.344;2023-05-08T12:37:49;5.18;;;2.70;;
12780;SDS011;6454;43.304;24.344;2023-05-08T12:40:24;9.80;;;2.90;;
12780;SDS011;6454;43.304;24.344;2023-05-08T12:42:52;8.35;;;3.35;;
12780;SDS011;6454;43.304;24.344;2023-05-08T12:45:20;7.93;;;3.28;;
12780;SDS011;6454;43.304;24.344;2023-05-08T12:47:50;4.15;;;3.00;;
12780;SDS011;6454;43.304;24.344;2023-05-08T12:50:19;3.72;;;2.80;;
12780;SDS011;6454;43.304;24.344;2023-05-08T12:52:47;5.30;;;3.00;;
12780;SDS011;6454;43.304;24.344;2023-05-08T12:55:20;7.32;;;2.92;;
12780;SDS011;6454;43.304;24.344;2023-05-08T12:57:48;6.07;;;3.28;;
12780;SDS011;6454;43.304;24.344;2023-05-08T13:00:16;3.90;;;2.83;;
12780;SDS011;6454;43.304;24.344;2023-05-08T13:02:51;4.10;;;3.05;;
12780;SDS011;6454;43.304;24.344;2023-05-08T13:05:19;6.93;;;2.55;;
12780;SDS011;6454;43.304;24.344;2023-05-08T13:07:47;5.97;;;2.83;;
12780;SDS011;6454;43.304;24.344;2023-05-08T13:10:15;3.53;;;2.83;;
12780;SDS011;6454;43.304;24.344;2023-05-08T13:12:44;4.93;;;2.83;;
12780;SDS011;6454;43.304;24.344;2023-05-08T13:15:11;5.30;;;3.13;;
12780;SDS011;6454;43.304;24.344;2023-05-08T13:17:37;4.38;;;2.80;;
12780;SDS011;6454;43.304;24.344;2023-05-08T13:20:07;5.50;;;3.00;;
12780;SDS011;6454;43.304;24.344;2023-05-08T13:22:35;4.32;;;3.40;;
12780;SDS011;6454;43.304;24.344;2023-05-08T13:25:02;4.75;;;3.35;;
12780;SDS011;6454;43.304;24.344;2023-05-08T13:27:29;4.25;;;3.00;;
12780;SDS011;6454;43.304;24.344;2023-05-08T13:29:56;6.60;;;3.20;;
12780;SDS011;6454;43.304;24.344;2023-05-08T13:32:23;9.95;;;3.80;;
12780;SDS011;6454;43.304;24.344;2023-05-08T13:34:49;10.13;;;3.45;;
12780;SDS011;6454;43.304;24.344;2023-05-08T13:37:18;4.10;;;2.97;;
12780;SDS011;6454;43.304;24.344;2023-05-08T13:39:44;4.07;;;2.88;;
12780;SDS011;6454;43.304;24.344;2023-05-08T13:42:11;8.70;;;3.20;;
12780;SDS011;6454;43.304;24.344;2023-05-08T13:44:38;7.70;;;3.00;;
12780;SDS011;6454;43.304;24.344;2023-05-08T13:47:05;4.68;;;2.78;;
12780;SDS011;6454;43.304;24.344;2023-05-08T13:49:31;6.65;;;2.92;;
12780;SDS011;6454;43.304;24.344;2023-05-08T13:51:58;7.32;;;3.38;;
12780;SDS011;6454;43.304;24.344;2023-05-08T13:54:27;6.68;;;3.05;;
12780;SDS011;6454;43.304;24.344;2023-05-08T13:56:54;5.18;;;2.80;;
12780;SDS011;6454;43.304;24.344;2023-05-08T13:59:21;4.80;;;3.03;;
12780;SDS011;6454;43.304;24.344;2023-05-08T14:01:48;8.15;;;3.00;;
12780;SDS011;6454;43.304;24.344;2023-05-08T14:04:14;4.57;;;3.00;;
12780;SDS011;6454;43.304;24.344;2023-05-08T14:06:43;11.65;;;4.32;;
12780;SDS011;6454;43.304;24.344;2023-05-08T14:09:10;8.13;;;4.20;;
12780;SDS011;6454;43.304;24.344;2023-05-08T14:11:38;9.43;;;3.78;;
12780;SDS011;6454;43.304;24.344;2023-05-08T14:14:05;10.20;;;4.70;;
12780;SDS011;6454;43.304;24.344;2023-05-08T14:16:31;10.70;;;3.55;;
12780;SDS011;6454;43.304;24.344;2023-05-08T14:18:58;8.75;;;4.25;;
12780;SDS011;6454;43.304;24.344;2023-05-08T14:21:25;34.85;;;9.18;;
12780;SDS011;6454;43.304;24.344;2023-05-08T14:23:52;19.52;;;6.75;;
12780;SDS011;6454;43.304;24.344;2023-05-08T14:26:19;8.52;;;3.80;;
12780;SDS011;6454;43.304;24.344;2023-05-08T14:28:47;4.88;;;3.42;;
12780;SDS011;6454;43.304;24.344;2023-05-08T14:31:14;6.40;;;3.28;;
12780;SDS011;6454;43.304;24.344;2023-05-08T14:33:41;5.50;;;3.35;;
12780;SDS011;6454;43.304;24.344;2023-05-08T14:36:08;8.55;;;3.60;;
12780;SDS011;6454;43.304;24.344;2023-05-08T14:38:35;7.15;;;4.30;;
12780;SDS011;6454;43.304;24.344;2023-05-08T14:41:02;6.28;;;4.65;;
12780;SDS011;6454;43.304;24.344;2023-05-08T14:43:29;8.48;;;5.32;;
12780;SDS011;6454;43.304;24.344;2023-05-08T14:45:57;9.43;;;6.10;;
12780;SDS011;6454;43.304;24.344;2023-05-08T14:48:24;10.00;;;5.45;;
12780;SDS011;6454;43.304;24.344;2023-05-08T14:50:51;7.75;;;4.82;;
12780;SDS011;6454;43.304;24.344;2023-05-08T14:53:18;6.53;;;4.57;;
12780;SDS011;6454;43.304;24.344;2023-05-08T14:55:52;8.99;;;4.29;;
12780;SDS011;6454;43.304;24.344;2023-05-08T14:58:29;9.40;;;4.38;;
12780;SDS011;6454;43.304;24.344;2023-05-08T15:00:57;5.25;;;4.07;;
12780;SDS011;6454;43.304;24.344;2023-05-08T15:03:24;6.68;;;4.10;;
12780;SDS011;6454;43.304;24.344;2023-05-08T15:05:51;4.63;;;4.15;;
12780;SDS011;6454;43.304;24.344;2023-05-08T15:08:18;7.85;;;4.40;;
12780;SDS011;6454;43.304;24.344;2023-05-08T15:10:45;7.20;;;4.43;;
12780;SDS011;6454;43.304;24.344;2023-05-08T15:13:12;4.88;;;3.80;;
12780;SDS011;6454;43.304;24.344;2023-05-08T15:15:38;5.65;;;3.80;;
12780;SDS011;6454;43.304;24.344;2023-05-08T15:18:07;5.50;;;3.70;;